createdAt,value
2022-10-12T00:00:37.584Z,29.90
2022-10-12T00:03:25.480Z,28.80
2022-10-12T00:06:09.804Z,28.33
2022-10-12T00:08:39.121Z,27.95
2022-10-12T00:11:08.835Z,27.55
2022-10-12T00:13:36.559Z,28.05
2022-10-12T00:16:07.010Z,30.33
2022-10-12T00:18:35.753Z,28.60
2022-10-12T00:21:15.212Z,29.27
2022-10-12T00:23:44.570Z,31.50
2022-10-12T00:26:15.362Z,34.92
2022-10-12T00:28:43.282Z,31.60
2022-10-12T00:31:14.757Z,32.80
2022-10-12T00:33:42.905Z,31.88
2022-10-12T00:36:23.679Z,32.20
2022-10-12T00:38:53.410Z,32.00
2022-10-12T00:41:24.729Z,33.10
2022-10-12T00:43:57.869Z,33.67
2022-10-12T00:46:45.302Z,33.03
2022-10-12T00:49:23.141Z,35.92
2022-10-12T00:52:05.170Z,35.78
2022-10-12T00:54:46.581Z,34.42
2022-10-12T00:57:17.467Z,35.35
2022-10-12T01:00:00.653Z,35.45
2022-10-12T01:02:32.125Z,33.65
2022-10-12T01:05:00.923Z,35.55
2022-10-12T01:07:28.712Z,36.97
2022-10-12T01:09:56.841Z,34.85
2022-10-12T01:12:24.960Z,36.28
2022-10-12T01:14:53.598Z,39.03
2022-10-12T01:17:24.809Z,41.05
2022-10-12T01:20:20.225Z,41.28
2022-10-12T01:23:08.132Z,38.42
2022-10-12T01:26:03.972Z,41.42
2022-10-12T01:28:57.387Z,40.08
2022-10-12T01:31:32.816Z,38.80
2022-10-12T01:34:40.662Z,39.97
2022-10-12T01:37:14.118Z,36.67
2022-10-12T01:39:54.192Z,37.78
2022-10-12T01:42:31.644Z,36.72
2022-10-12T01:45:03.408Z,37.55
2022-10-12T01:47:32.605Z,37.00
2022-10-12T01:50:05.687Z,37.95
2022-10-12T01:53:01.084Z,37.67
2022-10-12T01:55:56.203Z,37.00
2022-10-12T01:58:48.825Z,37.80
2022-10-12T02:01:34.528Z,36.72
2022-10-12T02:04:13.118Z,40.38
2022-10-12T02:06:53.960Z,36.42
2022-10-12T02:09:26.936Z,37.92
2022-10-12T02:11:58.800Z,47.88
2022-10-12T02:14:43.959Z,50.75
2022-10-12T02:17:16.610Z,52.67
2022-10-12T02:19:51.709Z,44.42
2022-10-12T02:22:20.242Z,44.78
2022-10-12T02:24:51.810Z,48.78
2022-10-12T02:27:22.031Z,46.92
2022-10-12T02:29:50.366Z,43.85
2022-10-12T02:32:40.087Z,43.05
2022-10-12T02:35:27.736Z,46.10
2022-10-12T02:38:03.217Z,45.03
2022-10-12T02:40:33.801Z,44.63
2022-10-12T02:43:39.037Z,42.78
2022-10-12T02:46:10.756Z,38.55
2022-10-12T02:48:40.597Z,40.30
2022-10-12T02:51:11.044Z,43.53
2022-10-12T02:53:39.627Z,42.38
2022-10-12T02:56:12.637Z,42.00
2022-10-12T02:58:44.344Z,43.17
2022-10-12T03:01:12.812Z,41.35
2022-10-12T03:03:41.302Z,38.22
2022-10-12T03:06:09.380Z,37.35
2022-10-12T03:08:37.198Z,37.03
2022-10-12T03:11:07.519Z,38.25
2022-10-12T03:13:35.607Z,35.42
2022-10-12T03:16:10.910Z,35.58
2022-10-12T03:18:39.387Z,34.85
2022-10-12T03:21:07.237Z,36.38
2022-10-12T03:23:35.052Z,36.08
2022-10-12T03:26:03.515Z,35.53
2022-10-12T03:28:31.779Z,34.80
2022-10-12T03:31:00.481Z,35.92
2022-10-12T03:33:28.367Z,38.28
2022-10-12T03:35:56.034Z,36.47
2022-10-12T03:38:23.732Z,37.80
2022-10-12T03:40:51.613Z,36.63
2022-10-12T03:43:19.351Z,36.17
2022-10-12T03:45:47.433Z,44.38
2022-10-12T03:48:15.097Z,42.47
2022-10-12T03:50:43.006Z,40.30
2022-10-12T03:53:10.880Z,40.45
2022-10-12T03:55:38.841Z,39.10
2022-10-12T03:58:06.529Z,38.50
2022-10-12T04:00:34.493Z,37.30
2022-10-12T04:03:02.347Z,34.22
2022-10-12T04:05:31.760Z,36.38
2022-10-12T04:08:00.424Z,35.28
2022-10-12T04:10:28.184Z,37.35
2022-10-12T04:12:56.551Z,35.88
2022-10-12T04:15:24.493Z,33.58
2022-10-12T04:17:52.937Z,35.03
2022-10-12T04:20:20.585Z,36.85
2022-10-12T04:22:48.493Z,35.22
2022-10-12T04:25:16.628Z,35.03
2022-10-12T04:27:44.317Z,34.45
2022-10-12T04:30:12.956Z,32.95
2022-10-12T04:32:40.742Z,31.77
2022-10-12T04:35:09.423Z,30.75
2022-10-12T04:37:37.504Z,31.20
2022-10-12T04:40:06.009Z,31.40
2022-10-12T04:42:33.663Z,31.13
2022-10-12T04:45:01.699Z,36.75
2022-10-12T04:47:29.505Z,37.35
2022-10-12T04:49:57.411Z,88.47
2022-10-12T04:52:25.232Z,59.38
2022-10-12T04:54:53.202Z,40.97
2022-10-12T04:57:21.029Z,38.63
2022-10-12T04:59:48.906Z,37.50
2022-10-12T05:02:16.687Z,34.40
2022-10-12T05:04:44.392Z,36.58
2022-10-12T05:07:12.359Z,34.40
2022-10-12T05:09:40.417Z,35.63
2022-10-12T05:12:08.376Z,35.53
2022-10-12T05:14:36.294Z,34.78
2022-10-12T05:17:04.937Z,35.55
2022-10-12T05:19:32.703Z,32.10
2022-10-12T05:22:00.659Z,35.25
2022-10-12T05:24:28.803Z,38.45
2022-10-12T05:26:56.945Z,39.08
2022-10-12T05:29:24.733Z,37.20
2022-10-12T05:31:53.436Z,39.75
2022-10-12T05:34:21.132Z,38.40
2022-10-12T05:36:50.490Z,41.33
2022-10-12T05:39:18.183Z,40.42
2022-10-12T05:41:46.003Z,41.05
2022-10-12T05:44:13.811Z,40.42
2022-10-12T05:46:41.928Z,39.13
2022-10-12T05:49:09.692Z,39.10
2022-10-12T05:51:38.815Z,35.80
2022-10-12T05:54:06.567Z,38.83
2022-10-12T05:56:34.581Z,35.63
2022-10-12T05:59:03.775Z,33.38
2022-10-12T06:01:31.953Z,34.63
2022-10-12T06:03:59.876Z,35.33
2022-10-12T06:06:27.752Z,34.58
2022-10-12T06:08:55.550Z,34.20
2022-10-12T06:11:23.554Z,33.03
2022-10-12T06:13:51.605Z,32.42
2022-10-12T06:16:19.615Z,31.38
2022-10-12T06:18:47.354Z,31.70
2022-10-12T06:21:32.632Z,34.40
2022-10-12T06:24:02.065Z,31.17
2022-10-12T06:26:30.546Z,31.58
2022-10-12T06:29:00.670Z,31.63
2022-10-12T06:31:29.461Z,29.95
2022-10-12T06:33:57.165Z,30.10
2022-10-12T06:36:25.524Z,29.38
2022-10-12T06:38:53.520Z,30.83
2022-10-12T06:41:21.432Z,31.08
2022-10-12T06:43:49.156Z,30.58
2022-10-12T06:46:17.177Z,28.85
2022-10-12T06:48:44.881Z,26.92
2022-10-12T06:51:12.747Z,25.83
2022-10-12T06:53:40.550Z,26.55
2022-10-12T06:56:10.018Z,24.95
2022-10-12T06:58:38.239Z,25.42
2022-10-12T07:01:08.468Z,25.17
2022-10-12T07:03:36.214Z,24.10
2022-10-12T07:06:13.346Z,25.85
2022-10-12T07:08:42.453Z,24.73
2022-10-12T07:11:12.848Z,25.98
2022-10-12T07:13:40.684Z,24.50
2022-10-12T07:16:08.778Z,25.08
2022-10-12T07:18:36.633Z,27.08
2022-10-12T07:21:04.871Z,26.75
2022-10-12T07:23:34.593Z,25.67
2022-10-12T07:26:02.808Z,23.15
2022-10-12T07:28:30.917Z,22.48
2022-10-12T07:31:07.884Z,20.52
2022-10-12T07:33:38.641Z,21.02
2022-10-12T07:36:14.347Z,19.20
2022-10-12T07:38:47.120Z,19.20
2022-10-12T07:41:15.982Z,18.73
2022-10-12T07:43:43.998Z,18.35
2022-10-12T07:46:12.359Z,17.70
2022-10-12T07:48:45.731Z,18.20
2022-10-12T07:51:17.490Z,16.98
2022-10-12T07:53:45.198Z,17.10
2022-10-12T07:56:17.042Z,16.85
2022-10-12T07:58:55.801Z,15.88
2022-10-12T08:01:26.021Z,16.15
2022-10-12T08:03:58.730Z,17.30
2022-10-12T08:06:31.923Z,16.08
2022-10-12T08:09:00.987Z,15.25
2022-10-12T08:11:29.259Z,16.33
2022-10-12T08:13:56.987Z,14.98
2022-10-12T08:16:25.028Z,14.95
2022-10-12T08:18:52.809Z,15.35
2022-10-12T08:21:21.219Z,14.15
2022-10-12T08:23:49.766Z,14.50
2022-10-12T08:26:17.903Z,15.20
2022-10-12T08:28:45.933Z,14.25
2022-10-12T08:31:16.422Z,14.07
2022-10-12T08:33:44.439Z,15.20
2022-10-12T08:36:13.602Z,13.93
2022-10-12T08:38:43.447Z,13.60
2022-10-12T08:41:21.314Z,12.98
2022-10-12T08:44:10.431Z,12.95
2022-10-12T08:46:38.863Z,13.05
2022-10-12T08:49:10.396Z,12.05
2022-10-12T08:51:48.252Z,12.73
2022-10-12T08:54:20.141Z,11.68
2022-10-12T08:56:48.433Z,11.82
2022-10-12T08:59:19.049Z,13.20
2022-10-12T09:01:52.697Z,11.77
2022-10-12T09:04:50.610Z,12.30
2022-10-12T09:07:27.118Z,11.98
2022-10-12T09:10:19.014Z,11.27
2022-10-12T09:13:06.146Z,12.05
2022-10-12T09:15:56.647Z,11.73
2022-10-12T09:18:41.564Z,12.18
2022-10-12T09:21:21.352Z,12.27
2022-10-12T09:23:50.207Z,12.50
2022-10-12T09:26:26.080Z,12.27
2022-10-12T09:28:58.500Z,12.30
2022-10-12T09:31:54.009Z,10.93
2022-10-12T09:34:24.987Z,8.45
2022-10-12T09:36:53.801Z,7.55
2022-10-12T09:39:29.322Z,4.10
2022-10-12T09:41:57.451Z,5.30
2022-10-12T09:44:37.068Z,5.38
2022-10-12T09:47:29.934Z,4.53
2022-10-12T09:50:04.249Z,4.90
2022-10-12T09:52:43.133Z,4.95
2022-10-12T09:57:57.215Z,5.25
2022-10-12T10:00:32.458Z,4.50
2022-10-12T10:03:02.139Z,3.72
2022-10-12T10:05:33.650Z,3.67
2022-10-12T10:08:21.745Z,5.07
2022-10-12T10:10:54.006Z,4.07
2022-10-12T10:13:32.980Z,3.63
2022-10-12T10:16:10.469Z,4.82
2022-10-12T10:18:52.859Z,4.18
2022-10-12T10:21:37.944Z,3.92
2022-10-12T10:24:08.023Z,3.92
2022-10-12T10:26:58.524Z,3.00
2022-10-12T10:29:40.798Z,3.53
2022-10-12T10:32:28.875Z,3.42
2022-10-12T10:35:13.889Z,3.42
2022-10-12T10:37:52.307Z,3.22
2022-10-12T10:40:31.673Z,3.72
2022-10-12T10:43:06.931Z,3.35
2022-10-12T10:45:37.977Z,2.40
2022-10-12T10:48:18.163Z,2.83
2022-10-12T10:51:00.269Z,2.72
2022-10-12T10:53:42.108Z,3.28
2022-10-12T10:56:15.461Z,2.25
2022-10-12T10:58:52.390Z,2.38
2022-10-12T11:01:33.376Z,3.08
2022-10-12T11:04:03.713Z,3.20
2022-10-12T11:06:39.819Z,3.70
2022-10-12T11:09:36.841Z,3.15
2022-10-12T11:12:16.079Z,2.70
2022-10-12T11:14:50.101Z,3.05
2022-10-12T11:17:23.321Z,3.00
2022-10-12T11:20:17.338Z,3.03
2022-10-12T11:23:17.368Z,2.75
2022-10-12T11:26:14.323Z,2.70
2022-10-12T11:28:43.116Z,2.70
2022-10-12T11:31:24.374Z,2.60
2022-10-12T11:33:54.847Z,2.55
2022-10-12T11:36:26.785Z,2.92
2022-10-12T11:39:07.363Z,3.72
2022-10-12T11:42:17.053Z,4.72
2022-10-12T11:44:43.792Z,2.72
2022-10-12T11:47:20.745Z,2.80
2022-10-12T11:50:06.696Z,4.00
2022-10-12T11:52:43.723Z,4.22
2022-10-12T11:55:39.217Z,2.28
2022-10-12T11:58:18.962Z,2.03
2022-10-12T12:00:56.961Z,2.53
2022-10-12T12:03:53.944Z,2.33
2022-10-12T12:06:30.325Z,2.47
2022-10-12T12:09:04.233Z,2.30
2022-10-12T12:11:34.580Z,2.50
2022-10-12T12:14:21.103Z,2.60
2022-10-12T12:16:49.767Z,2.92
2022-10-12T12:19:40.457Z,2.58
2022-10-12T12:22:20.530Z,2.88
2022-10-12T12:25:04.445Z,2.55
2022-10-12T12:27:57.571Z,2.50
2022-10-12T12:30:39.476Z,2.67
2022-10-12T12:33:31.093Z,2.70
2022-10-12T12:36:02.621Z,3.03
2022-10-12T12:38:38.248Z,2.50
2022-10-12T12:41:11.681Z,2.53
2022-10-12T12:43:53.488Z,2.80
2022-10-12T12:46:22.572Z,3.00
2022-10-12T12:48:50.276Z,3.33
2022-10-12T12:51:24.917Z,4.50
2022-10-12T12:53:52.781Z,3.65
2022-10-12T12:56:48.214Z,3.95
2022-10-12T12:59:47.610Z,3.70
2022-10-12T13:02:37.698Z,3.67
2022-10-12T13:05:17.685Z,3.70
2022-10-12T13:08:01.670Z,4.05
2022-10-12T13:10:35.117Z,3.65
2022-10-12T13:13:19.664Z,3.60
2022-10-12T13:16:05.824Z,4.13
2022-10-12T13:19:00.590Z,3.38
2022-10-12T13:21:52.916Z,3.25
2022-10-12T13:24:31.713Z,3.25
2022-10-12T13:27:20.389Z,3.38
2022-10-12T13:30:32.918Z,3.70
2022-10-12T13:33:10.102Z,3.97
2022-10-12T13:35:49.883Z,3.63
2022-10-12T13:38:26.713Z,3.58
2022-10-12T13:41:02.198Z,3.50
2022-10-12T13:43:36.718Z,3.15
2022-10-12T13:46:05.571Z,3.10
2022-10-12T13:48:58.266Z,3.00
2022-10-12T13:51:25.065Z,3.17
2022-10-12T13:53:53.595Z,2.95
2022-10-12T13:56:25.132Z,2.72
2022-10-12T13:58:57.755Z,3.05
2022-10-12T14:01:25.528Z,3.20
2022-10-12T14:04:02.070Z,3.80
2022-10-12T14:06:37.993Z,2.97
2022-10-12T14:09:15.067Z,3.10
2022-10-12T14:11:44.542Z,3.40
2022-10-12T14:14:31.382Z,3.25
2022-10-12T14:16:59.651Z,3.03
2022-10-12T14:19:53.756Z,3.45
2022-10-12T14:22:32.741Z,3.70
2022-10-12T14:25:16.707Z,3.80
2022-10-12T14:27:44.743Z,3.63
2022-10-12T14:30:22.538Z,3.08
2022-10-12T14:32:54.044Z,3.83
2022-10-12T14:35:29.235Z,3.60
2022-10-12T14:37:57.504Z,4.07
2022-10-12T14:40:31.629Z,4.00
2022-10-12T14:43:05.541Z,4.18
2022-10-12T14:45:34.056Z,4.88
2022-10-12T14:48:03.291Z,5.18
2022-10-12T14:50:32.460Z,4.40
2022-10-12T14:53:04.115Z,4.03
2022-10-12T14:55:34.030Z,4.43
2022-10-12T14:58:01.842Z,4.53
2022-10-12T15:00:32.595Z,4.25
2022-10-12T15:03:01.171Z,4.82
2022-10-12T15:05:34.072Z,5.25
2022-10-12T15:08:07.507Z,5.38
2022-10-12T15:10:36.881Z,4.80
2022-10-12T15:13:04.829Z,4.82
2022-10-12T15:15:49.389Z,4.72
2022-10-12T15:18:17.458Z,6.47
2022-10-12T15:20:49.307Z,6.38
2022-10-12T15:23:18.160Z,5.93
2022-10-12T15:25:50.522Z,5.70
2022-10-12T15:28:19.105Z,5.95
2022-10-12T15:31:15.407Z,5.25
2022-10-12T15:33:35.175Z,5.32
2022-10-12T15:36:03.585Z,5.38
2022-10-12T15:38:31.722Z,5.35
2022-10-12T15:40:59.453Z,6.28
2022-10-12T15:43:27.992Z,5.45
2022-10-12T15:45:56.659Z,6.00
2022-10-12T15:48:24.748Z,6.65
2022-10-12T15:50:52.554Z,6.60
2022-10-12T15:53:24.441Z,6.40
2022-10-12T15:55:54.246Z,7.90
2022-10-12T15:58:23.039Z,8.70
2022-10-12T16:00:50.876Z,8.48
2022-10-12T16:03:25.993Z,8.45
2022-10-12T16:05:54.663Z,10.10
2022-10-12T16:08:23.627Z,12.05
2022-10-12T16:10:51.667Z,13.68
2022-10-12T16:13:20.092Z,16.67
2022-10-12T16:15:47.825Z,17.00
2022-10-12T16:18:16.015Z,24.83
2022-10-12T16:20:48.565Z,22.55
2022-10-12T16:23:27.568Z,17.60
2022-10-12T16:25:56.273Z,20.63
2022-10-12T16:28:25.193Z,18.30
2022-10-12T16:30:55.198Z,17.90
2022-10-12T16:33:23.281Z,15.93
2022-10-12T16:35:51.028Z,14.07
2022-10-12T16:38:21.689Z,14.90
2022-10-12T16:40:49.953Z,15.15
2022-10-12T16:43:18.091Z,15.75
2022-10-12T16:45:45.927Z,14.90
2022-10-12T16:48:13.868Z,14.30
2022-10-12T16:50:43.035Z,13.13
2022-10-12T16:53:10.968Z,13.57
2022-10-12T16:55:39.342Z,14.65
2022-10-12T16:58:07.259Z,15.57
2022-10-12T17:00:35.039Z,23.15
2022-10-12T17:03:03.112Z,31.13
2022-10-12T17:05:31.062Z,31.38
2022-10-12T17:07:59.674Z,33.30
2022-10-12T17:10:27.589Z,45.47
2022-10-12T17:12:55.618Z,47.05
2022-10-12T17:15:23.478Z,42.97
2022-10-12T17:17:51.530Z,40.22
2022-10-12T17:20:19.339Z,40.28
2022-10-12T17:22:47.176Z,38.33
2022-10-12T17:25:14.890Z,36.28
2022-10-12T17:27:42.813Z,36.08
2022-10-12T17:30:10.946Z,33.60
2022-10-12T17:32:38.911Z,31.55
2022-10-12T17:35:06.899Z,30.75
2022-10-12T17:37:34.934Z,30.75
2022-10-12T17:40:04.303Z,34.90
2022-10-12T17:42:32.395Z,35.78
2022-10-12T17:45:00.098Z,46.83
2022-10-12T17:47:28.097Z,46.25
2022-10-12T17:49:55.787Z,40.40
2022-10-12T17:52:23.709Z,43.45
2022-10-12T17:54:51.736Z,46.45
2022-10-12T17:57:20.162Z,49.17
2022-10-12T17:59:48.339Z,45.72
2022-10-12T18:02:16.099Z,44.30
2022-10-12T18:04:44.851Z,41.53
2022-10-12T18:07:12.625Z,43.22
2022-10-12T18:09:41.356Z,56.45
2022-10-12T18:12:09.281Z,55.75
2022-10-12T18:14:37.071Z,54.67
2022-10-12T18:17:04.777Z,48.45
2022-10-12T18:19:32.802Z,54.45
2022-10-12T18:22:00.529Z,59.63
2022-10-12T18:24:28.349Z,48.63
2022-10-12T18:26:56.312Z,48.17
2022-10-12T18:29:24.366Z,48.63
2022-10-12T18:31:53.223Z,61.38
2022-10-12T18:34:21.143Z,60.22
2022-10-12T18:36:49.112Z,56.50
2022-10-12T18:39:17.412Z,51.65
2022-10-12T18:41:45.155Z,49.50
2022-10-12T18:44:15.006Z,49.40
2022-10-12T18:46:42.922Z,48.25
2022-10-12T18:49:11.873Z,49.10
2022-10-12T18:51:42.690Z,48.05
2022-10-12T18:54:14.049Z,52.28
2022-10-12T18:56:42.954Z,48.47
2022-10-12T18:59:12.842Z,48.40
2022-10-12T19:01:41.347Z,49.10
2022-10-12T19:04:09.084Z,62.13
2022-10-12T19:06:41.281Z,58.00
2022-10-12T19:09:14.264Z,53.83
2022-10-12T19:11:42.547Z,52.05
2022-10-12T19:14:14.289Z,50.53
2022-10-12T19:16:42.783Z,49.88
2022-10-12T19:19:20.943Z,51.25
2022-10-12T19:21:51.296Z,52.75
2022-10-12T19:24:20.814Z,53.90
2022-10-12T19:26:49.296Z,55.05
2022-10-12T19:29:17.593Z,59.25
2022-10-12T19:31:49.813Z,60.05
2022-10-12T19:34:20.878Z,60.65
2022-10-12T19:36:48.751Z,63.05
2022-10-12T19:39:19.668Z,62.40
2022-10-12T19:41:48.878Z,65.75
2022-10-12T19:44:17.285Z,78.13
2022-10-12T19:46:47.790Z,79.47
2022-10-12T19:49:17.681Z,80.35
2022-10-12T19:51:45.575Z,78.95
2022-10-12T19:54:15.696Z,78.43
2022-10-12T19:56:43.458Z,77.18
2022-10-12T19:59:11.766Z,78.68
2022-10-12T20:01:40.778Z,79.63
2022-10-12T20:04:10.133Z,80.47
2022-10-12T20:06:38.873Z,80.32
2022-10-12T20:09:08.078Z,74.93
2022-10-12T20:11:38.401Z,78.75
2022-10-12T20:14:07.132Z,84.45
2022-10-12T20:16:36.372Z,81.55
2022-10-12T20:19:07.083Z,83.03
2022-10-12T20:21:36.653Z,79.82
2022-10-12T20:24:05.125Z,78.65
2022-10-12T20:26:32.942Z,76.88
2022-10-12T20:29:01.593Z,105.88
2022-10-12T20:31:29.602Z,91.20
2022-10-12T20:33:58.371Z,88.55
2022-10-12T20:36:29.384Z,84.70
2022-10-12T20:39:00.621Z,85.43
2022-10-12T20:41:30.784Z,76.45
2022-10-12T20:44:00.523Z,76.72
2022-10-12T20:46:29.863Z,87.15
2022-10-12T20:48:59.811Z,86.05
2022-10-12T20:51:33.614Z,93.22
2022-10-12T20:54:02.475Z,87.68
2022-10-12T20:56:32.606Z,88.97
2022-10-12T20:59:01.025Z,90.68
2022-10-12T21:01:29.366Z,90.35
2022-10-12T21:03:58.131Z,94.75
2022-10-12T21:06:26.344Z,92.30
2022-10-12T21:08:56.823Z,93.75
2022-10-12T21:11:26.326Z,90.38
2022-10-12T21:13:55.425Z,87.18
2022-10-12T21:16:23.958Z,88.28
2022-10-12T21:18:55.870Z,86.22
2022-10-12T21:21:24.350Z,82.15
2022-10-12T21:23:58.824Z,83.30
2022-10-12T21:26:30.450Z,96.32
2022-10-12T21:28:59.782Z,90.60
2022-10-12T21:31:32.316Z,95.90
2022-10-12T21:34:02.402Z,94.37
2022-10-12T21:36:31.629Z,86.38
2022-10-12T21:38:59.620Z,84.38
2022-10-12T21:41:29.578Z,77.68
2022-10-12T21:43:58.533Z,80.97
2022-10-12T21:46:29.544Z,80.43
2022-10-12T21:48:57.894Z,79.72
2022-10-12T21:51:27.651Z,77.70
2022-10-12T21:53:55.384Z,76.15
2022-10-12T21:56:28.942Z,73.10
2022-10-12T21:58:58.667Z,69.55
2022-10-12T22:01:34.755Z,67.28
2022-10-12T22:04:08.405Z,66.93
2022-10-12T22:09:10.333Z,63.95
2022-10-12T22:11:38.660Z,58.90
2022-10-12T22:14:12.001Z,60.60
2022-10-12T22:16:43.206Z,60.08
2022-10-12T22:19:18.957Z,60.05
2022-10-12T22:21:49.286Z,61.97
2022-10-12T22:24:17.515Z,63.30
2022-10-12T22:26:45.833Z,72.85
2022-10-12T22:29:13.819Z,68.53
2022-10-12T22:31:41.972Z,65.75
2022-10-12T22:34:11.171Z,66.70
2022-10-12T22:36:39.121Z,67.43
2022-10-12T22:39:08.866Z,66.43
2022-10-12T22:41:37.089Z,64.32
2022-10-12T22:44:05.100Z,63.17
2022-10-12T22:46:32.925Z,63.65
2022-10-12T22:49:02.710Z,64.13
2022-10-12T22:51:36.057Z,59.85
2022-10-12T22:54:04.235Z,60.97
2022-10-12T22:56:32.651Z,58.38
2022-10-12T22:59:04.247Z,56.88
2022-10-12T23:01:32.030Z,56.67
2022-10-12T23:03:59.902Z,55.50
2022-10-12T23:06:27.758Z,56.58
2022-10-12T23:08:56.049Z,55.00
2022-10-12T23:11:26.914Z,53.20
2022-10-12T23:13:55.814Z,54.78
2022-10-12T23:16:25.916Z,55.78
2022-10-12T23:18:59.318Z,56.42
2022-10-12T23:21:29.934Z,55.72
2022-10-12T23:23:59.895Z,56.20
2022-10-12T23:26:28.851Z,53.60
2022-10-12T23:28:57.127Z,52.95
2022-10-12T23:31:27.928Z,55.08
2022-10-12T23:34:01.086Z,53.60
2022-10-12T23:36:30.767Z,56.50
2022-10-12T23:39:01.269Z,57.47
2022-10-12T23:41:29.314Z,55.33
2022-10-12T23:43:57.362Z,55.92
2022-10-12T23:46:25.485Z,58.03
2022-10-12T23:48:54.695Z,57.92
2022-10-12T23:51:22.955Z,56.85
2022-10-12T23:53:51.113Z,56.00
2022-10-12T23:56:18.859Z,54.60
2022-10-12T23:58:46.761Z,54.47
